Time;durP1;ratioP1;P1;durP2;ratioP2;P2;SDS_P1;SDS_P2;PMS_P1;PMS_P2;Temp;Humidity;BMP_temperature;BMP_pressure;BME280_temperature;BME280_humidity;BME280_pressure;Samples;Min_cycle;Max_cycle;Signal;HPM_P1;HPM_P2
2023/10/04 00:00:59;;;;;;;12.93;6.50;;;;;;;;;;5093944;28;20024;-72
2023/10/04 00:03:28;;;;;;;14.20;7.40;;;;;;;;;;5105598;28;20488;-71
2023/10/04 00:05:54;;;;;;;16.98;8.13;;;;;;;;;;5094984;28;20024;-71
2023/10/04 00:08:21;;;;;;;20.95;7.60;;;;;;;;;;5095058;28;20040;-71
2023/10/04 00:10:49;;;;;;;20.48;8.38;;;;;;;;;;5094468;28;20032;-71
2023/10/04 00:13:15;;;;;;;16.00;8.23;;;;;;;;;;5094223;28;20572;-72
2023/10/04 00:15:41;;;;;;;14.88;8.82;;;;;;;;;;5100600;28;20012;-71
2023/10/04 00:18:07;;;;;;;16.05;8.00;;;;;;;;;;5102841;28;20213;-70
2023/10/04 00:20:33;;;;;;;16.77;7.85;;;;;;;;;;5108089;28;20107;-71
2023/10/04 00:23:00;;;;;;;11.90;7.22;;;;;;;;;;5095872;28;20449;-71
2023/10/04 00:25:26;;;;;;;12.20;7.43;;;;;;;;;;5093742;28;20032;-71
2023/10/04 00:27:56;;;;;;;12.68;7.35;;;;;;;;;;5094117;28;20409;-72
2023/10/04 00:30:29;;;;;;;12.57;7.35;;;;;;;;;;5077947;28;20291;-71
2023/10/04 00:32:56;;;;;;;13.18;7.72;;;;;;;;;;5094138;28;20367;-72
2023/10/04 00:35:23;;;;;;;13.30;7.50;;;;;;;;;;5092090;28;20115;-72
2023/10/04 00:37:55;;;;;;;17.13;7.95;;;;;;;;;;5092859;28;20043;-73
2023/10/04 00:40:24;;;;;;;14.27;7.85;;;;;;;;;;5092880;28;20036;-72
2023/10/04 00:42:51;;;;;;;14.90;7.80;;;;;;;;;;5095516;28;20023;-72
2023/10/04 00:45:17;;;;;;;13.73;7.97;;;;;;;;;;5075172;28;20080;-73
2023/10/04 00:47:52;;;;;;;15.10;8.18;;;;;;;;;;5091700;28;20104;-71
2023/10/04 00:50:22;;;;;;;15.98;8.05;;;;;;;;;;5092518;28;20036;-71
2023/10/04 00:53:01;;;;;;;13.90;7.90;;;;;;;;;;5093795;28;20040;-71
2023/10/04 00:55:29;;;;;;;17.67;9.10;;;;;;;;;;5093403;28;20040;-71
2023/10/04 00:57:56;;;;;;;18.60;9.85;;;;;;;;;;5109273;28;20024;-71
2023/10/04 01:00:24;;;;;;;18.05;9.45;;;;;;;;;;5078068;28;20044;-72
2023/10/04 01:02:51;;;;;;;22.23;9.57;;;;;;;;;;5093644;28;20031;-72
2023/10/04 01:05:24;;;;;;;17.13;9.15;;;;;;;;;;5091681;28;20028;-71
2023/10/04 01:07:49;;;;;;;;;;;;;;;;;;5092761;28;20039;-71
2023/10/04 01:10:16;;;;;;;19.45;9.07;;;;;;;;;;5093469;28;19912;-72
2023/10/04 01:12:49;;;;;;;18.42;8.77;;;;;;;;;;5093238;28;20032;-71
2023/10/04 01:15:32;;;;;;;17.55;9.18;;;;;;;;;;5088111;28;20040;-72
2023/10/04 01:18:02;;;;;;;14.90;8.15;;;;;;;;;;5072011;28;20094;-71
2023/10/04 01:20:30;;;;;;;15.10;8.98;;;;;;;;;;5080811;28;20043;-71
2023/10/04 01:23:05;;;;;;;16.85;9.55;;;;;;;;;;5092044;28;20028;-72
2023/10/04 01:25:36;;;;;;;14.45;8.10;;;;;;;;;;5077797;28;20506;-72
2023/10/04 01:28:12;;;;;;;18.80;9.60;;;;;;;;;;5071380;28;20486;-72
2023/10/04 01:30:42;;;;;;;14.40;8.63;;;;;;;;;;5090010;28;20052;-71
2023/10/04 01:33:11;;;;;;;17.80;8.25;;;;;;;;;;5092829;28;20532;-72
2023/10/04 01:35:38;;;;;;;15.00;8.00;;;;;;;;;;5089496;28;20024;-72
2023/10/04 01:38:07;;;;;;;14.95;8.68;;;;;;;;;;5092701;28;20036;-71
2023/10/04 01:40:35;;;;;;;13.48;8.68;;;;;;;;;;5089607;28;20028;-71
2023/10/04 01:43:14;;;;;;;16.17;8.02;;;;;;;;;;5067415;28;20490;-71
2023/10/04 01:45:50;;;;;;;16.35;8.15;;;;;;;;;;5086640;28;20032;-70
2023/10/04 01:48:16;;;;;;;20.48;8.73;;;;;;;;;;5088023;28;20119;-70
2023/10/04 01:50:42;;;;;;;15.27;8.32;;;;;;;;;;5086450;28;20318;-70
2023/10/04 01:53:09;;;;;;;18.23;8.10;;;;;;;;;;5087723;28;20065;-69
2023/10/04 01:55:36;;;;;;;22.52;8.20;;;;;;;;;;5087306;28;20350;-71
2023/10/04 01:58:02;;;;;;;16.88;7.75;;;;;;;;;;5086969;28;20048;-71
2023/10/04 02:00:28;;;;;;;12.05;7.05;;;;;;;;;;5086643;28;20035;-72
2023/10/04 02:02:55;;;;;;;15.05;7.72;;;;;;;;;;5087031;28;20431;-71
2023/10/04 02:05:42;;;;;;;14.90;7.97;;;;;;;;;;5087099;28;20051;-71
2023/10/04 02:08:12;;;;;;;20.20;7.93;;;;;;;;;;5088463;28;20059;-71
2023/10/04 02:10:41;;;;;;;20.48;8.43;;;;;;;;;;5088664;28;20019;-71
2023/10/04 02:13:08;;;;;;;19.75;7.88;;;;;;;;;;5087328;28;20026;-72
2023/10/04 02:15:35;;;;;;;11.82;7.65;;;;;;;;;;5086867;28;20062;-71
2023/10/04 02:18:01;;;;;;;11.30;7.10;;;;;;;;;;5088519;28;20028;-71
2023/10/04 02:20:33;;;;;;;10.85;7.38;;;;;;;;;;5088470;28;20024;-72
2023/10/04 02:22:59;;;;;;;20.50;7.68;;;;;;;;;;5089069;28;20493;-72
2023/10/04 02:25:25;;;;;;;16.38;6.85;;;;;;;;;;5086800;28;20055;-72
2023/10/04 02:27:52;;;;;;;15.82;7.53;;;;;;;;;;5088389;28;20338;-72
2023/10/04 02:30:23;;;;;;;12.30;6.90;;;;;;;;;;5085867;28;20483;-72
2023/10/04 02:32:52;;;;;;;11.32;6.55;;;;;;;;;;5087140;28;20096;-73
2023/10/04 02:35:41;;;;;;;12.98;6.25;;;;;;;;;;5086555;28;20118;-72
2023/10/04 02:38:16;;;;;;;18.80;7.53;;;;;;;;;;5088217;28;20458;-72
2023/10/04 02:40:46;;;;;;;17.42;7.97;;;;;;;;;;5086510;28;20225;-72
2023/10/04 02:43:15;;;;;;;15.10;7.57;;;;;;;;;;5086559;28;20040;-71
2023/10/04 02:45:41;;;;;;;14.50;7.90;;;;;;;;;;5085690;28;20389;-71
2023/10/04 02:48:10;;;;;;;15.38;6.68;;;;;;;;;;5086420;28;20039;-72
2023/10/04 02:50:41;;;;;;;13.55;7.50;;;;;;;;;;5086473;28;20058;-70
2023/10/04 02:53:17;;;;;;;16.05;7.50;;;;;;;;;;5086512;28;20069;-70
2023/10/04 02:55:46;;;;;;;17.35;7.20;;;;;;;;;;5086071;28;20032;-72
2023/10/04 02:58:16;;;;;;;15.98;7.22;;;;;;;;;;5086773;28;20032;-70
2023/10/04 03:00:49;;;;;;;11.15;7.03;;;;;;;;;;5072583;28;20031;-72
2023/10/04 03:03:24;;;;;;;11.32;7.00;;;;;;;;;;5086360;28;20059;-72
2023/10/04 03:05:54;;;;;;;11.40;7.13;;;;;;;;;;5087307;28;20063;-72
2023/10/04 03:08:22;;;;;;;12.65;7.20;;;;;;;;;;5086435;28;20040;-72
2023/10/04 03:10:50;;;;;;;13.30;7.40;;;;;;;;;;5088361;28;20020;-71
2023/10/04 03:13:22;;;;;;;20.80;8.48;;;;;;;;;;5090433;28;20105;-70
2023/10/04 03:15:54;;;;;;;22.35;9.05;;;;;;;;;;5089692;28;20409;-72
2023/10/04 03:18:21;;;;;;;22.58;8.40;;;;;;;;;;5105501;28;20471;-72
2023/10/04 03:23:32;;;;;;;17.73;7.55;;;;;;;;;;5113203;28;20118;-72
2023/10/04 03:26:00;;;;;;;15.20;7.72;;;;;;;;;;5114246;28;20128;-71
2023/10/04 03:28:27;;;;;;;16.42;7.43;;;;;;;;;;5100569;28;20047;-71
2023/10/04 03:30:54;;;;;;;21.55;7.25;;;;;;;;;;5094118;28;20055;-70
2023/10/04 03:33:20;;;;;;;13.90;7.53;;;;;;;;;;5093955;28;20028;-71
2023/10/04 03:35:48;;;;;;;12.25;6.90;;;;;;;;;;5093359;28;20401;-72
2023/10/04 03:38:15;;;;;;;11.98;6.72;;;;;;;;;;5093747;28;20104;-71
2023/10/04 03:40:43;;;;;;;13.07;7.20;;;;;;;;;;5093859;28;20028;-71
2023/10/04 03:43:13;;;;;;;18.67;7.38;;;;;;;;;;5093918;28;20027;-70
2023/10/04 03:45:42;;;;;;;14.13;7.57;;;;;;;;;;5089376;28;20020;-72
2023/10/04 03:48:15;;;;;;;17.42;9.40;;;;;;;;;;5089901;28;20122;-71
2023/10/04 03:50:46;;;;;;;19.35;9.18;;;;;;;;;;5089140;28;20036;-72
2023/10/04 03:53:13;;;;;;;21.17;7.47;;;;;;;;;;5085878;28;20036;-72
2023/10/04 03:55:46;;;;;;;19.48;8.77;;;;;;;;;;5086033;28;20528;-74
2023/10/04 03:58:15;;;;;;;21.65;8.25;;;;;;;;;;5073213;28;20086;-70
2023/10/04 04:00:42;;;;;;;25.02;8.15;;;;;;;;;;5089740;28;20126;-71
2023/10/04 04:03:10;;;;;;;16.35;8.20;;;;;;;;;;5090588;28;20044;-72
2023/10/04 04:05:42;;;;;;;20.20;8.63;;;;;;;;;;5090104;28;20089;-72
2023/10/04 04:08:08;;;;;;;21.05;7.60;;;;;;;;;;5089598;28;20056;-71
2023/10/04 04:10:36;;;;;;;15.65;8.25;;;;;;;;;;5088628;28;20016;-72
2023/10/04 04:13:05;;;;;;;18.95;8.27;;;;;;;;;;5089176;28;20046;-70
2023/10/04 04:15:35;;;;;;;28.13;8.50;;;;;;;;;;5101375;28;20572;-71
2023/10/04 04:18:14;;;;;;;20.75;8.73;;;;;;;;;;5106878;28;20023;-72
2023/10/04 04:20:41;;;;;;;23.83;9.00;;;;;;;;;;5103473;28;20051;-71
2023/10/04 04:23:10;;;;;;;29.77;9.75;;;;;;;;;;5087551;28;20028;-71
2023/10/04 04:25:38;;;;;;;25.75;10.35;;;;;;;;;;5093184;28;20038;-73
2023/10/04 04:28:07;;;;;;;31.27;10.90;;;;;;;;;;5125847;27;20027;-73
2023/10/04 04:30:35;;;;;;;24.17;10.70;;;;;;;;;;5104002;28;20028;-71
2023/10/04 04:33:05;;;;;;;24.13;9.77;;;;;;;;;;5078566;28;20193;-72
2023/10/04 04:38:47;;;;;;;29.02;12.90;;;;;;;;;;5110408;28;20463;-71
2023/10/04 04:40:56;;;;;;;32.72;11.18;;;;;;;;;;5105650;28;20148;-73
2023/10/04 04:43:36;;;;;;;22.30;10.18;;;;;;;;;;5112635;28;20031;-71
2023/10/04 04:46:23;;;;;;;26.38;10.85;;;;;;;;;;5112452;28;20024;-71
2023/10/04 04:48:53;;;;;;;23.30;10.27;;;;;;;;;;5112737;28;20039;-71
2023/10/04 04:51:20;;;;;;;40.50;17.15;;;;;;;;;;5112802;28;20037;-71
2023/10/04 04:53:54;;;;;;;31.60;10.77;;;;;;;;;;5071682;28;20032;-73
2023/10/04 04:56:24;;;;;;;27.52;9.75;;;;;;;;;;5072281;28;20043;-73
2023/10/04 04:58:52;;;;;;;23.58;8.38;;;;;;;;;;5071912;28;20041;-73
2023/10/04 05:01:18;;;;;;;24.15;9.63;;;;;;;;;;5071571;28;20036;-72
2023/10/04 05:03:50;;;;;;;20.65;8.85;;;;;;;;;;5069311;28;20550;-71
2023/10/04 05:06:25;;;;;;;16.67;8.60;;;;;;;;;;5111965;28;20043;-72
2023/10/04 05:08:54;;;;;;;17.27;7.80;;;;;;;;;;5113350;28;20035;-72
2023/10/04 05:11:20;;;;;;;15.48;7.55;;;;;;;;;;5092944;28;20230;-73
2023/10/04 05:13:46;;;;;;;12.30;7.32;;;;;;;;;;5092676;28;20405;-72
2023/10/04 05:16:12;;;;;;;25.08;8.35;;;;;;;;;;5091180;28;20020;-73
2023/10/04 05:18:38;;;;;;;26.13;8.25;;;;;;;;;;5092556;28;20051;-72
2023/10/04 05:21:05;;;;;;;20.38;8.65;;;;;;;;;;5093846;28;20462;-71
2023/10/04 05:23:31;;;;;;;20.77;7.00;;;;;;;;;;5105239;28;20052;-72
2023/10/04 05:25:57;;;;;;;15.93;7.53;;;;;;;;;;5082856;28;20063;-71
2023/10/04 05:28:24;;;;;;;19.60;7.47;;;;;;;;;;5092800;28;20088;-71
2023/10/04 05:30:51;;;;;;;16.08;6.97;;;;;;;;;;5082324;28;20099;-72
2023/10/04 05:33:22;;;;;;;16.90;6.68;;;;;;;;;;5091297;28;20039;-73
2023/10/04 05:35:53;;;;;;;15.10;6.78;;;;;;;;;;5095443;28;20032;-73
2023/10/04 05:38:20;;;;;;;17.65;6.97;;;;;;;;;;5092656;28;20456;-74
2023/10/04 05:40:46;;;;;;;14.48;7.07;;;;;;;;;;5093759;28;20031;-73
2023/10/04 05:43:14;;;;;;;15.38;6.53;;;;;;;;;;5095331;28;20069;-75
2023/10/04 05:45:42;;;;;;;14.60;6.60;;;;;;;;;;5100023;28;20358;-74
2023/10/04 05:48:11;;;;;;;12.52;6.43;;;;;;;;;;5101242;28;20032;-73
2023/10/04 05:50:38;;;;;;;17.85;6.50;;;;;;;;;;5092253;28;20499;-74
2023/10/04 05:53:08;;;;;;;10.63;6.22;;;;;;;;;;5092451;28;20047;-74
2023/10/04 05:55:35;;;;;;;13.88;7.60;;;;;;;;;;5090434;28;20446;-74
2023/10/04 05:58:08;;;;;;;17.60;6.78;;;;;;;;;;5091570;28;20032;-74
2023/10/04 06:00:37;;;;;;;17.98;6.15;;;;;;;;;;5091064;28;20380;-74
2023/10/04 06:03:10;;;;;;;24.88;7.03;;;;;;;;;;5092150;28;20043;-74
2023/10/04 06:05:37;;;;;;;;;;;;;;;;;;5090391;28;20132;-73
2023/10/04 06:08:18;;;;;;;16.30;6.60;;;;;;;;;;5091266;28;19962;-75
2023/10/04 06:10:51;;;;;;;13.70;6.07;;;;;;;;;;5091400;28;20322;-74
2023/10/04 06:13:17;;;;;;;9.60;5.40;;;;;;;;;;5091717;28;20031;-73
2023/10/04 06:15:46;;;;;;;18.50;7.00;;;;;;;;;;5091313;28;20081;-73
2023/10/04 06:18:12;;;;;;;18.50;7.03;;;;;;;;;;5091365;28;20028;-74
2023/10/04 06:20:40;;;;;;;17.60;5.85;;;;;;;;;;5090750;28;20062;-75
2023/10/04 06:23:11;;;;;;;14.82;5.93;;;;;;;;;;5091216;28;20123;-73
2023/10/04 06:25:47;;;;;;;15.30;5.53;;;;;;;;;;5089879;28;20081;-72
2023/10/04 06:28:14;;;;;;;17.55;8.18;;;;;;;;;;5082929;28;20111;-75
2023/10/04 06:30:42;;;;;;;15.00;6.97;;;;;;;;;;5091617;28;20032;-72
2023/10/04 06:33:11;;;;;;;16.98;7.32;;;;;;;;;;5091542;28;20030;-72
2023/10/04 06:35:38;;;;;;;15.82;7.15;;;;;;;;;;5087462;28;20038;-74
2023/10/04 06:38:08;;;;;;;16.98;7.60;;;;;;;;;;5090174;28;20042;-75
2023/10/04 06:40:36;;;;;;;16.13;7.88;;;;;;;;;;5090627;28;20470;-74
2023/10/04 06:43:04;;;;;;;14.45;7.45;;;;;;;;;;5090235;28;20032;-74
2023/10/04 06:45:31;;;;;;;18.05;8.18;;;;;;;;;;5090317;28;20027;-73
2023/10/04 06:47:58;;;;;;;13.93;7.68;;;;;;;;;;5090451;28;20043;-76
2023/10/04 06:50:28;;;;;;;20.40;9.38;;;;;;;;;;5090195;28;20020;-74
2023/10/04 06:52:57;;;;;;;20.40;8.85;;;;;;;;;;5090552;28;20032;-72
2023/10/04 06:55:23;;;;;;;14.07;8.57;;;;;;;;;;5090332;28;20103;-72
2023/10/04 06:57:50;;;;;;;16.38;8.25;;;;;;;;;;5089152;28;20398;-71
2023/10/04 07:00:20;;;;;;;15.02;8.15;;;;;;;;;;5088266;28;20027;-71
2023/10/04 07:02:58;;;;;;;17.13;7.65;;;;;;;;;;5090634;28;20115;-71
2023/10/04 07:05:26;;;;;;;20.27;9.48;;;;;;;;;;5082099;28;20054;-73
2023/10/04 07:07:54;;;;;;;16.80;9.18;;;;;;;;;;5089492;28;20027;-73
2023/10/04 07:10:21;;;;;;;15.35;7.78;;;;;;;;;;5091332;28;20445;-72
2023/10/04 07:12:51;;;;;;;18.85;7.55;;;;;;;;;;5090278;28;20023;-72
2023/10/04 07:15:18;;;;;;;19.75;7.80;;;;;;;;;;5082313;28;20031;-75
2023/10/04 07:17:47;;;;;;;17.45;8.32;;;;;;;;;;5091217;28;20135;-74
2023/10/04 07:20:16;;;;;;;19.25;7.95;;;;;;;;;;5091200;28;20039;-74
2023/10/04 07:22:45;;;;;;;14.35;8.20;;;;;;;;;;5090614;28;20043;-72
2023/10/04 07:25:15;;;;;;;14.73;8.45;;;;;;;;;;5089761;28;20095;-73
2023/10/04 07:27:45;;;;;;;14.40;8.20;;;;;;;;;;5089254;28;20024;-72
2023/10/04 07:30:13;;;;;;;13.88;7.70;;;;;;;;;;5090888;28;20035;-74
2023/10/04 07:32:46;;;;;;;16.55;8.73;;;;;;;;;;5089377;28;20046;-74
2023/10/04 07:35:19;;;;;;;13.27;8.27;;;;;;;;;;5090602;28;20119;-73
2023/10/04 07:37:46;;;;;;;16.67;8.15;;;;;;;;;;5090853;28;20032;-73
2023/10/04 07:40:14;;;;;;;18.25;9.18;;;;;;;;;;5090785;28;20028;-74
2023/10/04 07:42:41;;;;;;;15.95;8.82;;;;;;;;;;5091345;28;20024;-73
2023/10/04 07:45:08;;;;;;;11.02;7.78;;;;;;;;;;5090669;28;20398;-74
2023/10/04 07:47:38;;;;;;;22.13;8.77;;;;;;;;;;5091000;28;20046;-72
2023/10/04 07:50:09;;;;;;;17.80;8.75;;;;;;;;;;5089347;28;20027;-71
2023/10/04 07:52:37;;;;;;;21.13;9.23;;;;;;;;;;5090597;28;20128;-72
2023/10/04 07:55:05;;;;;;;18.00;9.13;;;;;;;;;;5090340;28;20362;-71
2023/10/04 07:57:41;;;;;;;16.05;8.80;;;;;;;;;;5093606;28;20401;-72
2023/10/04 08:00:14;;;;;;;16.65;9.80;;;;;;;;;;5094099;28;20043;-73
2023/10/04 08:02:46;;;;;;;18.02;9.27;;;;;;;;;;5094730;28;20381;-73
2023/10/04 08:05:20;;;;;;;13.65;7.25;;;;;;;;;;5093519;28;20043;-72
2023/10/04 08:07:50;;;;;;;17.90;9.55;;;;;;;;;;5094371;28;20043;-73
2023/10/04 08:10:17;;;;;;;15.40;9.10;;;;;;;;;;5093505;28;20492;-71
2023/10/04 08:12:44;;;;;;;17.35;8.95;;;;;;;;;;5094207;28;20436;-72
2023/10/04 08:15:15;;;;;;;15.32;8.75;;;;;;;;;;5094087;28;20040;-72
2023/10/04 08:17:43;;;;;;;21.55;10.27;;;;;;;;;;5092387;28;20064;-71
2023/10/04 08:20:15;;;;;;;25.75;10.00;;;;;;;;;;5093622;28;20130;-71
2023/10/04 08:22:43;;;;;;;16.75;9.00;;;;;;;;;;5093559;28;20036;-72
2023/10/04 08:25:13;;;;;;;15.55;7.78;;;;;;;;;;5093460;28;20070;-72
2023/10/04 08:27:40;;;;;;;14.07;7.60;;;;;;;;;;5093837;28;20040;-71
2023/10/04 08:30:07;;;;;;;13.95;6.72;;;;;;;;;;5093528;28;20034;-72
2023/10/04 08:32:34;;;;;;;15.85;6.57;;;;;;;;;;5093586;28;20032;-71
2023/10/04 08:35:00;;;;;;;17.20;7.15;;;;;;;;;;5093380;28;20523;-71
2023/10/04 08:37:27;;;;;;;15.57;7.32;;;;;;;;;;5093177;28;20032;-71
2023/10/04 08:39:53;;;;;;;15.95;6.95;;;;;;;;;;5093252;28;20058;-71
2023/10/04 08:42:20;;;;;;;12.75;6.63;;;;;;;;;;5093297;28;20067;-72
2023/10/04 08:44:46;;;;;;;14.15;7.05;;;;;;;;;;5093412;28;20032;-72
2023/10/04 08:47:12;;;;;;;16.48;7.75;;;;;;;;;;5093373;28;20046;-72
2023/10/04 08:49:47;;;;;;;10.75;6.47;;;;;;;;;;5093253;28;20477;-70
2023/10/04 08:52:23;;;;;;;10.30;6.97;;;;;;;;;;5093294;28;20059;-72
2023/10/04 08:54:53;;;;;;;11.95;6.65;;;;;;;;;;5092743;28;20131;-72
2023/10/04 08:57:21;;;;;;;12.07;6.78;;;;;;;;;;5092711;28;20055;-71
2023/10/04 08:59:49;;;;;;;12.77;6.80;;;;;;;;;;5092862;28;20043;-73
2023/10/04 09:02:18;;;;;;;11.55;6.95;;;;;;;;;;5093193;28;20016;-72
2023/10/04 09:04:46;;;;;;;11.75;7.40;;;;;;;;;;5092716;28;20024;-69
2023/10/04 09:07:11;;;;;;;14.95;6.57;;;;;;;;;;5092463;28;20390;-73
2023/10/04 09:09:41;;;;;;;10.80;6.10;;;;;;;;;;5092344;28;20069;-72
2023/10/04 09:12:07;;;;;;;12.70;6.35;;;;;;;;;;5092204;28;20522;-70
2023/10/04 09:14:34;;;;;;;10.43;5.35;;;;;;;;;;5092060;28;20404;-71
2023/10/04 09:17:07;;;;;;;11.43;6.90;;;;;;;;;;5090526;28;20519;-71
2023/10/04 09:19:34;;;;;;;14.90;6.05;;;;;;;;;;5092398;28;20043;-72
2023/10/04 09:22:05;;;;;;;15.18;6.35;;;;;;;;;;5091918;28;20031;-72
2023/10/04 09:24:31;;;;;;;13.90;6.55;;;;;;;;;;5089468;28;20024;-74
2023/10/04 09:26:57;;;;;;;17.00;6.13;;;;;;;;;;5091979;28;20389;-72
2023/10/04 09:29:35;;;;;;;9.32;6.40;;;;;;;;;;5092284;28;20111;-72
2023/10/04 09:32:02;;;;;;;10.75;6.25;;;;;;;;;;5089865;28;20042;-72
2023/10/04 09:34:29;;;;;;;12.65;7.47;;;;;;;;;;5091083;28;20540;-71
2023/10/04 09:36:55;;;;;;;15.27;7.25;;;;;;;;;;5091073;28;20462;-71
2023/10/04 09:39:31;;;;;;;12.43;7.32;;;;;;;;;;5091285;28;20031;-71
2023/10/04 09:42:03;;;;;;;11.70;6.32;;;;;;;;;;5091759;28;20040;-72
2023/10/04 09:44:30;;;;;;;10.80;6.53;;;;;;;;;;5091219;28;20108;-71
2023/10/04 09:47:02;;;;;;;11.40;6.75;;;;;;;;;;5090605;28;20032;-71
2023/10/04 09:49:36;;;;;;;13.38;6.75;;;;;;;;;;5090707;28;20036;-72
2023/10/04 09:52:07;;;;;;;12.73;6.50;;;;;;;;;;5091702;28;20043;-71
2023/10/04 09:54:36;;;;;;;15.50;6.90;;;;;;;;;;5090398;28;20093;-71
2023/10/04 09:57:07;;;;;;;9.98;6.07;;;;;;;;;;5091238;28;20086;-72
2023/10/04 09:59:37;;;;;;;9.70;6.05;;;;;;;;;;5092917;28;20482;-72
2023/10/04 10:02:07;;;;;;;11.95;7.30;;;;;;;;;;5090150;28;20063;-71
2023/10/04 10:04:41;;;;;;;11.80;6.15;;;;;;;;;;5090875;28;20074;-71
2023/10/04 10:07:23;;;;;;;8.52;5.90;;;;;;;;;;5088193;28;20375;-72
2023/10/04 10:10:05;;;;;;;16.27;6.57;;;;;;;;;;5089628;28;20036;-72
2023/10/04 10:12:35;;;;;;;10.95;6.38;;;;;;;;;;5089988;28;20032;-71
2023/10/04 10:15:04;;;;;;;14.98;7.05;;;;;;;;;;5090298;28;20508;-71
2023/10/04 10:17:33;;;;;;;14.38;6.40;;;;;;;;;;5090783;28;20465;-71
2023/10/04 10:20:00;;;;;;;11.50;5.60;;;;;;;;;;5090141;28;20074;-71
2023/10/04 10:22:26;;;;;;;11.40;5.43;;;;;;;;;;5090275;28;20028;-72
2023/10/04 10:24:55;;;;;;;8.32;5.35;;;;;;;;;;5088776;28;20528;-72
2023/10/04 10:27:23;;;;;;;11.63;6.32;;;;;;;;;;5090787;28;20069;-71
2023/10/04 10:29:51;;;;;;;10.82;6.25;;;;;;;;;;5090786;28;20032;-71
2023/10/04 10:32:22;;;;;;;9.63;5.93;;;;;;;;;;5090839;28;20020;-71
2023/10/04 10:34:56;;;;;;;9.40;6.22;;;;;;;;;;5089831;28;20118;-71
2023/10/04 10:37:24;;;;;;;16.65;6.35;;;;;;;;;;5090394;28;20110;-71
2023/10/04 10:39:55;;;;;;;13.30;6.38;;;;;;;;;;5089856;28;20302;-71
2023/10/04 10:42:23;;;;;;;11.88;6.93;;;;;;;;;;5091660;28;20440;-71
2023/10/04 10:44:50;;;;;;;11.93;5.78;;;;;;;;;;5089447;28;20071;-71
2023/10/04 10:47:26;;;;;;;9.88;5.35;;;;;;;;;;5090993;28;20285;-71
2023/10/04 10:49:56;;;;;;;12.38;7.13;;;;;;;;;;5091346;28;20067;-71
2023/10/04 10:52:30;;;;;;;12.68;6.85;;;;;;;;;;5090751;28;20092;-71
2023/10/04 10:55:00;;;;;;;13.00;6.63;;;;;;;;;;5090255;28;20058;-71
2023/10/04 10:57:30;;;;;;;9.80;6.22;;;;;;;;;;5090589;28;20028;-72
2023/10/04 11:00:11;;;;;;;11.43;6.15;;;;;;;;;;5090910;28;20100;-71
2023/10/04 11:02:37;;;;;;;16.15;6.93;;;;;;;;;;5090693;28;20434;-71
2023/10/04 11:05:06;;;;;;;14.15;6.47;;;;;;;;;;5091003;28;20099;-71
2023/10/04 11:07:32;;;;;;;12.60;6.78;;;;;;;;;;5091228;28;20454;-71
2023/10/04 11:09:58;;;;;;;11.77;6.70;;;;;;;;;;5090411;28;20394;-71
2023/10/04 11:12:25;;;;;;;14.27;6.93;;;;;;;;;;5090340;28;20043;-71
2023/10/04 11:14:52;;;;;;;11.77;6.47;;;;;;;;;;5090506;28;20075;-71
2023/10/04 11:17:20;;;;;;;13.55;6.35;;;;;;;;;;5091150;28;20036;-71
2023/10/04 11:19:46;;;;;;;12.20;5.93;;;;;;;;;;5090788;28;20484;-72
2023/10/04 11:22:14;;;;;;;10.95;6.10;;;;;;;;;;5090870;28;20043;-71
2023/10/04 11:24:41;;;;;;;11.65;5.25;;;;;;;;;;5090601;28;20027;-72
2023/10/04 11:27:10;;;;;;;10.18;5.97;;;;;;;;;;5090571;28;20024;-70
2023/10/04 11:29:37;;;;;;;9.48;5.75;;;;;;;;;;5090325;28;20152;-71
2023/10/04 11:32:05;;;;;;;8.98;5.47;;;;;;;;;;5093260;28;20173;-71
2023/10/04 11:34:37;;;;;;;10.80;5.78;;;;;;;;;;5094591;28;20115;-71
2023/10/04 11:37:04;;;;;;;12.10;6.00;;;;;;;;;;5094395;28;20044;-71
2023/10/04 11:39:35;;;;;;;14.02;6.60;;;;;;;;;;5094288;28;20271;-71
2023/10/04 11:42:05;;;;;;;10.95;6.05;;;;;;;;;;5094823;28;20118;-72
2023/10/04 11:44:35;;;;;;;10.93;5.47;;;;;;;;;;5095031;28;20047;-72
2023/10/04 11:47:03;;;;;;;8.55;5.22;;;;;;;;;;5094740;28;20026;-72
2023/10/04 11:49:33;;;;;;;11.00;5.25;;;;;;;;;;5094438;28;20052;-72
2023/10/04 11:52:07;;;;;;;9.65;6.18;;;;;;;;;;5094455;28;20031;-72
2023/10/04 11:54:53;;;;;;;8.85;5.90;;;;;;;;;;5092943;28;20405;-73
2023/10/04 11:57:37;;;;;;;12.82;6.00;;;;;;;;;;5094975;28;20097;-72
2023/10/04 12:00:26;;;;;;;11.90;6.00;;;;;;;;;;5094782;28;20042;-72
2023/10/04 12:02:53;;;;;;;8.80;5.78;;;;;;;;;;5094490;28;20127;-72
2023/10/04 12:05:20;;;;;;;8.43;5.22;;;;;;;;;;5094504;28;20477;-71
2023/10/04 12:07:47;;;;;;;10.63;5.72;;;;;;;;;;5094048;28;20032;-72
2023/10/04 12:10:15;;;;;;;10.30;5.05;;;;;;;;;;5094389;28;20031;-73
2023/10/04 12:12:42;;;;;;;10.75;5.82;;;;;;;;;;5094035;28;20501;-72
2023/10/04 12:15:08;;;;;;;9.32;4.82;;;;;;;;;;5093937;28;20074;-72
2023/10/04 12:17:35;;;;;;;8.68;5.03;;;;;;;;;;5093301;28;20447;-72
2023/10/04 12:20:04;;;;;;;9.20;5.85;;;;;;;;;;5093299;28;20073;-71
2023/10/04 12:22:30;;;;;;;10.82;5.90;;;;;;;;;;5094269;28;20040;-72
2023/10/04 12:24:56;;;;;;;9.60;5.50;;;;;;;;;;5094232;28;20016;-73
2023/10/04 12:27:24;;;;;;;8.18;5.30;;;;;;;;;;5089300;28;20040;-72
2023/10/04 12:29:50;;;;;;;8.27;5.68;;;;;;;;;;5094045;28;20072;-72
2023/10/04 12:32:19;;;;;;;8.40;5.75;;;;;;;;;;5094182;28;20568;-71
2023/10/04 12:34:45;;;;;;;12.05;5.80;;;;;;;;;;5092447;28;20081;-71
2023/10/04 12:37:12;;;;;;;12.15;6.50;;;;;;;;;;5092962;28;20028;-71
2023/10/04 12:39:38;;;;;;;11.20;8.15;;;;;;;;;;5093737;28;20024;-72
2023/10/04 12:42:04;;;;;;;9.75;5.82;;;;;;;;;;5093703;28;20114;-72
2023/10/04 12:44:31;;;;;;;9.52;6.45;;;;;;;;;;5089685;28;20017;-72
2023/10/04 12:46:57;;;;;;;9.88;5.65;;;;;;;;;;5093808;28;20040;-72
2023/10/04 12:49:23;;;;;;;7.72;5.32;;;;;;;;;;5092473;28;20024;-72
2023/10/04 12:51:50;;;;;;;11.60;6.15;;;;;;;;;;5093671;28;20246;-72
2023/10/04 12:54:16;;;;;;;12.13;6.03;;;;;;;;;;5093452;28;20020;-72
2023/10/04 12:56:46;;;;;;;8.50;5.60;;;;;;;;;;5093117;28;20059;-71
2023/10/04 12:59:11;;;;;;;8.95;6.22;;;;;;;;;;5093498;28;20085;-73
2023/10/04 13:01:38;;;;;;;11.13;5.35;;;;;;;;;;5093603;28;20533;-72
2023/10/04 13:04:04;;;;;;;12.10;5.15;;;;;;;;;;5093654;28;20191;-72
2023/10/04 13:06:30;;;;;;;8.68;5.82;;;;;;;;;;5093396;28;20127;-71
2023/10/04 13:08:56;;;;;;;9.80;5.35;;;;;;;;;;5093834;28;20052;-72
2023/10/04 13:11:24;;;;;;;10.35;5.03;;;;;;;;;;5093489;28;20035;-72
2023/10/04 13:13:50;;;;;;;6.45;4.70;;;;;;;;;;5092183;28;20036;-72
2023/10/04 13:16:17;;;;;;;9.85;5.40;;;;;;;;;;5090265;28;20494;-73
2023/10/04 13:18:43;;;;;;;9.75;5.60;;;;;;;;;;5092520;28;20035;-72
2023/10/04 13:21:12;;;;;;;9.30;5.53;;;;;;;;;;5093218;28;20040;-72
2023/10/04 13:23:37;;;;;;;10.00;6.18;;;;;;;;;;5093423;28;20078;-71
2023/10/04 13:26:04;;;;;;;9.80;6.05;;;;;;;;;;5092321;28;20032;-73
2023/10/04 13:28:29;;;;;;;9.10;5.15;;;;;;;;;;5093073;28;20063;-72
2023/10/04 13:30:57;;;;;;;11.70;6.00;;;;;;;;;;5092957;28;20040;-72
2023/10/04 13:33:24;;;;;;;8.48;5.60;;;;;;;;;;5091789;28;20019;-72
2023/10/04 13:35:53;;;;;;;9.88;5.63;;;;;;;;;;5092545;28;20173;-72
2023/10/04 13:38:21;;;;;;;12.55;5.57;;;;;;;;;;5092716;28;20030;-72
2023/10/04 13:40:48;;;;;;;8.38;5.30;;;;;;;;;;5092090;28;20484;-71
2023/10/04 13:43:14;;;;;;;9.95;5.18;;;;;;;;;;5092358;28;20103;-71
2023/10/04 13:45:40;;;;;;;9.65;5.22;;;;;;;;;;5092178;28;20055;-72
2023/10/04 13:48:09;;;;;;;8.52;5.65;;;;;;;;;;5092903;28;20072;-72
2023/10/04 13:50:38;;;;;;;9.15;5.13;;;;;;;;;;5094008;28;20102;-71
2023/10/04 13:53:10;;;;;;;11.05;5.85;;;;;;;;;;5092903;28;20508;-71
2023/10/04 13:55:36;;;;;;;9.77;5.68;;;;;;;;;;5091838;28;20090;-72
2023/10/04 13:58:02;;;;;;;10.02;6.70;;;;;;;;;;5092388;28;20110;-72
2023/10/04 14:00:28;;;;;;;8.55;5.63;;;;;;;;;;5092461;28;20110;-72
2023/10/04 14:02:54;;;;;;;9.68;5.78;;;;;;;;;;5091612;28;20024;-71
2023/10/04 14:05:21;;;;;;;9.77;5.40;;;;;;;;;;5091578;28;20065;-72
2023/10/04 14:07:56;;;;;;;10.60;5.65;;;;;;;;;;5091991;28;20020;-71
2023/10/04 14:10:25;;;;;;;10.38;5.65;;;;;;;;;;5091958;28;20068;-71
2023/10/04 14:12:55;;;;;;;7.40;5.22;;;;;;;;;;5092102;28;20115;-71
2023/10/04 14:15:29;;;;;;;9.02;5.57;;;;;;;;;;5091547;28;20493;-72
2023/10/04 14:17:56;;;;;;;11.07;6.18;;;;;;;;;;5091790;28;20077;-71
2023/10/04 14:20:23;;;;;;;10.18;5.65;;;;;;;;;;5092518;28;20063;-71
2023/10/04 14:22:50;;;;;;;17.70;6.15;;;;;;;;;;5091681;28;20038;-72
2023/10/04 14:25:16;;;;;;;10.93;5.45;;;;;;;;;;5091681;28;20020;-72
2023/10/04 14:27:43;;;;;;;15.38;5.63;;;;;;;;;;5091931;28;20112;-72
2023/10/04 14:30:23;;;;;;;12.15;5.93;;;;;;;;;;5090813;28;20074;-71
2023/10/04 14:32:51;;;;;;;10.20;5.63;;;;;;;;;;5091567;28;20116;-72
2023/10/04 14:35:17;;;;;;;11.38;5.60;;;;;;;;;;5090848;28;20430;-71
2023/10/04 14:37:43;;;;;;;15.73;5.50;;;;;;;;;;5090266;28;20046;-71
2023/10/04 14:40:19;;;;;;;10.02;4.90;;;;;;;;;;5091691;28;20023;-72
2023/10/04 14:42:48;;;;;;;10.88;5.30;;;;;;;;;;5091818;28;20111;-72
2023/10/04 14:45:15;;;;;;;9.32;5.35;;;;;;;;;;5090749;28;20542;-72
2023/10/04 14:47:41;;;;;;;15.38;5.60;;;;;;;;;;5091461;28;20130;-72